Time;durP1;ratioP1;P1;durP2;ratioP2;P2;SDS_P1;SDS_P2;PMS_P1;PMS_P2;Temp;Humidity;BMP_temperature;BMP_pressure;BME280_temperature;BME280_humidity;BME280_pressure;Samples;Min_cycle;Max_cycle;Signal;HPM_P1;HPM_P2
2023/08/10 00:02:15;;;;;;;7.88;3.63;;;10.20;97.00;;;;;;5022015;28;20029;-68
2023/08/10 00:04:41;;;;;;;7.95;3.20;;;10.20;97.20;;;;;;5025112;28;20032;-68
2023/08/10 00:07:06;;;;;;;9.77;3.45;;;10.20;97.20;;;;;;5031313;28;20113;-68
2023/08/10 00:09:32;;;;;;;10.38;3.85;;;10.30;97.30;;;;;;5027497;28;20040;-69
2023/08/10 00:11:57;;;;;;;9.40;3.40;;;10.20;97.10;;;;;;5027373;28;20445;-69
2023/08/10 00:14:23;;;;;;;9.40;3.33;;;10.10;97.00;;;;;;5026843;28;20053;-68
2023/08/10 00:16:48;;;;;;;7.38;3.45;;;10.10;97.10;;;;;;5026517;28;20029;-68
2023/08/10 00:19:14;;;;;;;5.85;3.47;;;10.10;97.30;;;;;;5037839;28;20099;-68
2023/08/10 00:21:39;;;;;;;13.60;4.32;;;10.10;97.30;;;;;;5032768;28;20123;-68
2023/08/10 00:24:05;;;;;;;11.52;4.03;;;10.00;97.50;;;;;;5038882;28;20052;-68
2023/08/10 00:26:31;;;;;;;9.65;3.15;;;10.00;97.40;;;;;;5017962;28;20342;-68
2023/08/10 00:28:56;;;;;;;9.38;3.92;;;9.90;97.30;;;;;;5020458;28;20033;-68
2023/08/10 00:31:22;;;;;;;10.85;3.67;;;9.80;97.20;;;;;;5035325;28;20445;-68
2023/08/10 00:33:47;;;;;;;9.60;3.67;;;9.70;97.30;;;;;;5027253;28;20025;-68
2023/08/10 00:36:13;;;;;;;8.07;3.50;;;9.80;97.50;;;;;;5025758;28;20036;-68
2023/08/10 00:38:40;;;;;;;8.27;3.85;;;9.90;97.70;;;;;;5021350;28;20036;-68
2023/08/10 00:41:06;;;;;;;13.25;4.05;;;10.00;97.70;;;;;;5039717;28;20353;-68
2023/08/10 00:43:32;;;;;;;9.55;3.85;;;10.10;97.90;;;;;;5018959;28;20057;-68
2023/08/10 00:45:59;;;;;;;11.52;4.57;;;10.30;97.90;;;;;;5022197;28;20075;-68
2023/08/10 00:48:25;;;;;;;12.27;4.70;;;10.40;97.80;;;;;;5022726;28;20087;-68
2023/08/10 00:50:52;;;;;;;10.70;4.32;;;10.40;97.70;;;;;;5029194;28;20037;-68
2023/08/10 00:53:18;;;;;;;11.30;4.55;;;10.30;97.50;;;;;;5028503;28;20034;-68
2023/08/10 00:55:51;;;;;;;9.98;4.70;;;10.20;97.30;;;;;;5027243;28;20028;-68
2023/08/10 00:58:17;;;;;;;9.40;4.28;;;10.10;97.30;;;;;;5025378;28;20446;-68
2023/08/10 01:00:43;;;;;;;13.35;4.28;;;10.10;97.30;;;;;;5040117;28;20025;-68
2023/08/10 01:03:09;;;;;;;11.75;3.55;;;10.00;97.40;;;;;;5033606;28;20037;-68
2023/08/10 01:05:43;;;;;;;10.68;4.15;;;10.00;97.50;;;;;;5031097;28;20023;-68
2023/08/10 01:08:24;;;;;;;10.02;4.22;;;10.00;97.70;;;;;;5040363;28;20051;-69
2023/08/10 01:11:02;;;;;;;9.20;4.35;;;10.10;97.90;;;;;;5037094;28;20385;-68
2023/08/10 01:13:58;;;;;;;12.90;4.82;;;10.20;97.90;;;;;;5020893;28;20026;-68
2023/08/10 01:16:25;;;;;;;8.45;4.13;;;10.30;97.90;;;;;;5029358;28;20036;-68
2023/08/10 01:18:51;;;;;;;12.00;5.20;;;10.40;97.90;;;;;;5040006;28;20024;-68
2023/08/10 01:21:35;;;;;;;10.70;4.72;;;10.50;97.80;;;;;;5034663;28;20504;-68
2023/08/10 01:24:10;;;;;;;12.68;4.55;;;10.50;97.70;;;;;;5034571;28;20544;-69
2023/08/10 01:26:36;;;;;;;8.25;4.57;;;10.40;97.60;;;;;;5030068;28;20017;-68
2023/08/10 01:29:03;;;;;;;12.45;4.65;;;10.40;97.50;;;;;;5029221;28;20064;-69
2023/08/10 01:31:29;;;;;;;11.82;4.95;;;10.40;97.60;;;;;;5030473;28;20057;-68
2023/08/10 01:33:54;;;;;;;10.13;4.38;;;10.40;97.50;;;;;;5038934;28;20474;-68
2023/08/10 01:36:20;;;;;;;8.10;4.20;;;10.40;97.50;;;;;;5029299;28;20120;-68
2023/08/10 01:38:46;;;;;;;11.60;4.10;;;10.50;97.50;;;;;;5036357;28;20066;-68
2023/08/10 01:41:11;;;;;;;9.00;4.70;;;10.30;97.40;;;;;;5024226;28;20025;-68
2023/08/10 01:43:37;;;;;;;9.38;3.75;;;10.30;97.50;;;;;;5029274;28;20534;-68
2023/08/10 01:46:05;;;;;;;7.28;4.20;;;10.30;97.50;;;;;;5029392;28;20029;-68
2023/08/10 01:48:34;;;;;;;14.77;4.00;;;10.30;97.50;;;;;;5032970;28;20041;-68
2023/08/10 01:51:03;;;;;;;11.95;4.10;;;10.40;97.50;;;;;;5033700;28;20368;-69
2023/08/10 01:53:31;;;;;;;10.43;3.83;;;10.40;97.50;;;;;;5028811;28;20140;-69
2023/08/10 01:55:57;;;;;;;8.63;3.90;;;10.50;97.50;;;;;;5033000;28;20025;-68
2023/08/10 01:58:23;;;;;;;13.85;3.92;;;10.50;97.60;;;;;;5029294;28;20075;-69
2023/08/10 02:00:49;;;;;;;12.32;3.75;;;10.60;97.60;;;;;;5024805;28;20025;-69
2023/08/10 02:03:14;;;;;;;7.32;3.83;;;10.60;97.50;;;;;;5033733;28;20035;-68
2023/08/10 02:05:40;;;;;;;10.45;4.03;;;10.70;97.60;;;;;;5027535;28;20033;-68
2023/08/10 02:08:07;;;;;;;9.98;3.63;;;10.70;97.40;;;;;;5026680;28;20021;-68
2023/08/10 02:10:33;;;;;;;8.85;4.18;;;10.80;97.40;;;;;;5027869;28;20022;-68
2023/08/10 02:12:58;;;;;;;13.23;4.10;;;10.80;97.40;;;;;;5028518;28;20613;-68
2023/08/10 02:15:24;;;;;;;11.75;3.25;;;10.80;97.30;;;;;;5022026;28;20042;-68
2023/08/10 02:17:50;;;;;;;12.60;3.60;;;10.80;97.20;;;;;;5033132;28;20123;-68
2023/08/10 02:20:15;;;;;;;6.32;3.75;;;10.80;97.20;;;;;;5027745;28;20034;-68
2023/08/10 02:22:48;;;;;;;7.03;3.70;;;10.70;97.10;;;;;;5030527;28;20108;-68
2023/08/10 02:25:14;;;;;;;6.10;3.28;;;10.70;97.20;;;;;;5021973;28;20041;-68
2023/08/10 02:27:40;;;;;;;11.77;3.47;;;10.60;97.20;;;;;;5029967;28;20101;-69
2023/08/10 02:30:07;;;;;;;5.50;3.17;;;10.60;97.20;;;;;;5022842;28;20100;-68
2023/08/10 02:32:33;;;;;;;9.38;3.85;;;10.60;97.10;;;;;;5026756;28;20433;-68
2023/08/10 02:34:59;;;;;;;9.55;3.75;;;10.60;97.20;;;;;;5025340;28;20142;-68
2023/08/10 02:37:24;;;;;;;7.65;3.55;;;10.50;97.40;;;;;;5029991;28;20025;-68
2023/08/10 02:39:49;;;;;;;9.23;3.50;;;10.50;97.40;;;;;;5019796;28;20034;-69
2023/08/10 02:42:15;;;;;;;8.07;3.72;;;10.50;97.40;;;;;;5031962;28;20021;-69
2023/08/10 02:44:41;;;;;;;8.80;3.63;;;10.50;97.40;;;;;;5028576;28;20428;-68
2023/08/10 02:47:07;;;;;;;9.38;3.47;;;10.50;97.30;;;;;;5031171;28;20036;-69
2023/08/10 02:49:32;;;;;;;6.40;3.38;;;10.40;97.30;;;;;;5034857;28;20063;-68
2023/08/10 02:51:58;;;;;;;7.43;3.30;;;10.40;97.30;;;;;;5027270;28;20060;-69
2023/08/10 02:54:23;;;;;;;10.77;3.60;;;10.40;97.40;;;;;;5036087;28;20146;-68
2023/08/10 02:56:48;;;;;;;7.50;3.70;;;10.30;97.60;;;;;;5043872;28;20475;-69
2023/08/10 02:59:14;;;;;;;15.23;4.05;;;10.30;97.70;;;;;;5022569;28;20073;-68
2023/08/10 03:01:40;;;;;;;11.93;4.60;;;10.30;97.90;;;;;;5034014;28;20546;-68
2023/08/10 03:04:05;;;;;;;10.77;4.43;;;10.30;97.90;;;;;;5042161;28;20037;-68
2023/08/10 03:06:32;;;;;;;10.82;4.57;;;10.30;97.90;;;;;;5035282;28;20416;-68
2023/08/10 03:08:57;;;;;;;7.35;4.13;;;10.20;97.80;;;;;;5039346;28;20067;-68
2023/08/10 03:11:23;;;;;;;6.05;3.53;;;10.20;97.90;;;;;;5035231;28;20021;-68
2023/08/10 03:13:48;;;;;;;10.00;3.72;;;10.10;97.80;;;;;;5033076;28;20041;-68
2023/08/10 03:16:14;;;;;;;11.32;4.53;;;10.10;97.90;;;;;;5027686;28;20040;-68
2023/08/10 03:18:39;;;;;;;10.32;3.90;;;10.00;97.80;;;;;;5028825;28;20031;-68
2023/08/10 03:21:05;;;;;;;8.93;4.05;;;10.00;97.90;;;;;;5035089;28;20100;-69
2023/08/10 03:23:31;;;;;;;9.98;4.22;;;9.90;98.00;;;;;;5027416;28;20052;-68
2023/08/10 03:25:56;;;;;;;9.80;4.32;;;10.00;98.20;;;;;;5026483;28;20058;-68
2023/08/10 03:28:22;;;;;;;8.40;4.60;;;10.00;98.30;;;;;;5030609;28;20026;-68
2023/08/10 03:30:48;;;;;;;10.43;4.72;;;10.00;98.30;;;;;;5020859;28;20037;-69
2023/08/10 03:33:13;;;;;;;8.63;4.85;;;10.10;98.30;;;;;;5027830;28;20029;-68
2023/08/10 03:35:40;;;;;;;10.38;4.53;;;10.10;98.30;;;;;;5026835;28;20061;-68
2023/08/10 03:38:06;;;;;;;10.00;4.63;;;10.10;98.30;;;;;;5027878;28;20029;-68
2023/08/10 03:40:31;;;;;;;12.23;4.53;;;10.10;98.30;;;;;;5033533;28;20050;-68
2023/08/10 03:42:56;;;;;;;10.07;4.72;;;10.00;98.20;;;;;;5026968;28;20089;-68
2023/08/10 03:45:22;;;;;;;9.07;4.60;;;10.00;98.20;;;;;;5025721;28;20033;-68
2023/08/10 03:47:48;;;;;;;14.95;4.78;;;9.90;98.20;;;;;;5030394;28;20065;-69
2023/08/10 03:50:13;;;;;;;10.02;4.65;;;9.80;98.30;;;;;;5019615;28;20456;-68
2023/08/10 03:52:38;;;;;;;9.38;4.45;;;9.80;98.30;;;;;;5028863;28;20029;-68
2023/08/10 03:55:04;;;;;;;15.02;4.35;;;9.60;98.20;;;;;;5028251;28;20033;-69
2023/08/10 03:57:30;;;;;;;10.15;4.47;;;9.60;98.40;;;;;;5032321;28;20436;-68
2023/08/10 03:59:55;;;;;;;11.75;4.50;;;9.50;98.30;;;;;;5028208;28;20029;-68
2023/08/10 04:02:22;;;;;;;10.80;4.88;;;9.50;98.40;;;;;;5031641;28;20033;-69
2023/08/10 04:04:48;;;;;;;11.00;4.60;;;9.50;98.50;;;;;;5023409;28;20027;-69
2023/08/10 04:07:13;;;;;;;12.25;4.70;;;9.50;98.60;;;;;;5020140;28;20026;-68
2023/08/10 04:09:44;;;;;;;9.35;5.18;;;9.60;98.70;;;;;;5028445;28;20044;-68
2023/08/10 04:12:10;;;;;;;12.52;5.53;;;9.60;98.80;;;;;;5025547;28;20049;-68
2023/08/10 04:14:35;;;;;;;10.07;5.75;;;9.60;98.80;;;;;;5029329;28;20068;-68
2023/08/10 04:17:01;;;;;;;10.82;5.28;;;9.60;98.90;;;;;;5030158;28;20034;-68
2023/08/10 04:19:27;;;;;;;12.38;6.20;;;9.60;98.90;;;;;;5026419;28;20029;-68
2023/08/10 04:21:53;;;;;;;10.02;5.88;;;9.60;98.90;;;;;;5024003;28;20032;-68
2023/08/10 04:24:18;;;;;;;15.00;6.35;;;9.60;98.90;;;;;;5027233;28;20680;-68
2023/08/10 04:26:45;;;;;;;12.32;6.43;;;9.70;99.00;;;;;;5036269;28;20074;-67
2023/08/10 04:29:10;;;;;;;17.35;6.28;;;9.70;99.00;;;;;;5044197;28;20045;-67
2023/08/10 04:31:36;;;;;;;12.60;6.32;;;9.70;99.10;;;;;;5030152;28;20029;-67
2023/08/10 04:34:01;;;;;;;14.70;6.72;;;9.80;99.10;;;;;;5024581;28;20037;-68
2023/08/10 04:36:27;;;;;;;16.40;6.63;;;9.80;99.00;;;;;;5028264;28;20045;-67
2023/08/10 04:38:52;;;;;;;11.93;6.68;;;9.80;99.10;;;;;;5040281;28;20039;-68
2023/08/10 04:41:18;;;;;;;14.20;6.95;;;9.80;99.10;;;;;;5024958;28;20030;-67
2023/08/10 04:43:43;;;;;;;17.27;7.25;;;9.80;99.00;;;;;;5039579;28;21791;-68
2023/08/10 04:46:09;;;;;;;15.57;7.45;;;9.90;99.00;;;;;;5032312;28;20400;-67
2023/08/10 04:48:34;;;;;;;11.23;6.47;;;9.90;99.10;;;;;;5029208;28;20041;-67
2023/08/10 04:51:00;;;;;;;15.13;7.35;;;9.90;99.10;;;;;;5030215;28;20483;-67
2023/08/10 04:53:26;;;;;;;20.95;7.45;;;9.90;99.00;;;;;;5020755;28;20037;-67
2023/08/10 04:55:52;;;;;;;17.05;7.22;;;10.00;99.10;;;;;;5038780;28;20022;-67
2023/08/10 04:58:17;;;;;;;17.83;7.10;;;10.00;99.10;;;;;;5026031;28;20412;-68
2023/08/10 05:00:43;;;;;;;16.77;7.50;;;10.10;99.00;;;;;;5028600;28;20424;-67
2023/08/10 05:03:09;;;;;;;18.42;7.45;;;10.10;99.10;;;;;;5034578;28;20500;-67
2023/08/10 05:05:34;;;;;;;17.77;7.68;;;10.10;99.00;;;;;;5031103;28;20074;-68
2023/08/10 05:08:00;;;;;;;14.70;6.75;;;10.20;99.00;;;;;;5028009;28;20103;-68
2023/08/10 05:10:25;;;;;;;13.30;6.80;;;10.20;99.00;;;;;;5029941;28;20369;-67
2023/08/10 05:12:51;;;;;;;14.07;6.75;;;10.30;99.00;;;;;;5022263;28;20036;-68
2023/08/10 05:15:16;;;;;;;14.38;8.00;;;10.30;99.00;;;;;;5022117;28;20040;-68
2023/08/10 05:17:42;;;;;;;16.95;6.72;;;10.50;99.00;;;;;;5030465;28;20397;-67
2023/08/10 05:20:11;;;;;;;22.17;8.13;;;10.50;98.90;;;;;;5031125;28;20109;-68
2023/08/10 05:22:40;;;;;;;15.52;6.95;;;10.50;98.90;;;;;;5026030;28;20071;-68
2023/08/10 05:25:06;;;;;;;15.52;7.03;;;10.60;98.80;;;;;;5027629;28;20064;-67
2023/08/10 05:27:32;;;;;;;16.40;7.50;;;10.60;98.70;;;;;;5029998;28;20042;-67
2023/08/10 05:29:57;;;;;;;14.18;6.75;;;10.70;98.70;;;;;;5030418;28;20026;-68
2023/08/10 05:32:23;;;;;;;18.95;7.00;;;10.80;98.60;;;;;;5020692;28;20539;-68
2023/08/10 05:34:48;;;;;;;13.68;7.15;;;10.90;98.50;;;;;;5032561;28;20068;-68
2023/08/10 05:37:13;;;;;;;25.88;7.47;;;11.00;98.50;;;;;;5025874;28;20108;-67
2023/08/10 05:39:39;;;;;;;13.82;6.65;;;11.10;98.40;;;;;;5026179;28;20033;-67
2023/08/10 05:42:05;;;;;;;16.60;7.25;;;11.10;98.40;;;;;;5026671;28;20128;-67
2023/08/10 05:44:31;;;;;;;20.27;7.30;;;11.20;98.30;;;;;;5027879;28;20033;-67
2023/08/10 05:46:56;;;;;;;21.60;7.07;;;11.40;98.30;;;;;;5014699;28;20049;-67
2023/08/10 05:49:22;;;;;;;17.48;6.95;;;11.50;98.20;;;;;;5027682;28;20496;-67
2023/08/10 05:51:47;;;;;;;11.45;6.88;;;11.60;98.00;;;;;;5027479;28;20516;-68
2023/08/10 05:54:13;;;;;;;17.73;6.57;;;11.70;97.80;;;;;;5042456;28;20037;-67
2023/08/10 05:56:38;;;;;;;15.95;6.57;;;11.80;97.80;;;;;;5035254;28;20029;-67
2023/08/10 05:59:04;;;;;;;16.55;7.10;;;11.90;97.70;;;;;;5020221;28;20148;-67
2023/08/10 06:01:30;;;;;;;19.27;6.15;;;12.00;97.40;;;;;;5031071;28;20507;-67
2023/08/10 06:03:55;;;;;;;15.70;6.63;;;12.10;97.20;;;;;;5024243;28;20029;-67
2023/08/10 06:06:20;;;;;;;13.52;6.60;;;12.20;97.10;;;;;;5021432;28;20022;-67
2023/08/10 06:08:48;;;;;;;12.77;6.45;;;12.30;97.10;;;;;;5024313;28;20083;-67
2023/08/10 06:11:13;;;;;;;16.00;6.32;;;12.40;97.10;;;;;;5038120;28;20040;-67
2023/08/10 06:13:41;;;;;;;10.50;6.35;;;12.50;97.00;;;;;;5025834;28;20037;-67
2023/08/10 06:16:07;;;;;;;14.07;6.03;;;12.60;97.00;;;;;;5028067;28;20066;-68
2023/08/10 06:18:34;;;;;;;13.23;5.40;;;12.70;96.90;;;;;;5029149;28;20495;-67
2023/08/10 06:21:01;;;;;;;11.85;4.88;;;12.80;96.60;;;;;;5032989;28;20477;-67
2023/08/10 06:23:28;;;;;;;12.32;4.85;;;12.90;96.60;;;;;;5023662;28;20025;-67
2023/08/10 06:25:54;;;;;;;14.35;4.82;;;13.00;96.50;;;;;;5027750;28;20048;-67
2023/08/10 06:28:20;;;;;;;11.48;4.38;;;13.10;96.00;;;;;;5020096;28;20040;-68
2023/08/10 06:30:46;;;;;;;11.35;4.50;;;13.10;95.50;;;;;;5022739;28;20167;-67
2023/08/10 06:33:11;;;;;;;11.05;4.18;;;13.20;95.60;;;;;;5021654;28;20461;-67
2023/08/10 06:35:40;;;;;;;10.35;3.70;;;13.50;95.40;;;;;;5032793;28;20044;-68
2023/08/10 06:38:06;;;;;;;10.60;3.40;;;13.50;95.00;;;;;;5023824;28;20037;-67
2023/08/10 06:40:32;;;;;;;12.45;2.80;;;13.60;94.70;;;;;;5024896;28;20025;-67
2023/08/10 06:42:58;;;;;;;10.52;2.75;;;13.70;94.30;;;;;;5023405;28;20037;-68
2023/08/10 06:45:24;;;;;;;8.27;2.33;;;13.80;92.30;;;;;;5021367;28;20037;-67
2023/08/10 06:47:49;;;;;;;7.40;2.25;;;13.90;92.80;;;;;;5019485;28;20045;-67
2023/08/10 06:50:16;;;;;;;7.50;2.55;;;14.00;92.10;;;;;;5022841;28;20079;-67
2023/08/10 06:52:41;;;;;;;8.80;2.28;;;14.20;91.90;;;;;;5020230;28;20390;-67
2023/08/10 06:55:07;;;;;;;6.80;2.42;;;14.20;91.30;;;;;;5026059;28;20040;-67
2023/08/10 06:57:34;;;;;;;6.03;2.03;;;14.30;90.80;;;;;;5020397;28;20026;-68
2023/08/10 07:00:02;;;;;;;6.30;2.10;;;14.50;91.00;;;;;;5026761;28;20456;-67
2023/08/10 07:02:28;;;;;;;18.00;2.15;;;14.60;89.70;;;;;;5026319;28;20029;-67
2023/08/10 07:04:54;;;;;;;6.72;1.90;;;14.60;88.40;;;;;;5021764;28;20040;-67
2023/08/10 07:07:19;;;;;;;9.05;1.90;;;14.80;88.60;;;;;;5023819;28;20038;-67
2023/08/10 07:09:45;;;;;;;11.38;2.03;;;14.90;87.30;;;;;;5024566;28;20041;-67
2023/08/10 07:12:10;;;;;;;7.80;1.55;;;15.00;87.10;;;;;;5033435;28;20029;-67
2023/08/10 07:14:36;;;;;;;6.90;1.58;;;15.10;87.50;;;;;;5015087;28;20065;-68
2023/08/10 07:17:02;;;;;;;5.00;1.55;;;15.50;86.90;;;;;;5028203;28;20036;-68
2023/08/10 07:19:28;;;;;;;11.90;1.90;;;15.60;85.60;;;;;;5027113;28;20026;-67
2023/08/10 07:21:55;;;;;;;5.80;1.63;;;15.70;85.40;;;;;;5022960;28;20071;-68
2023/08/10 07:24:24;;;;;;;6.32;1.33;;;15.70;84.60;;;;;;5025611;28;20057;-67
2023/08/10 07:26:51;;;;;;;7.50;1.50;;;15.70;82.50;;;;;;5025639;28;20084;-67
2023/08/10 07:29:18;;;;;;;15.32;1.83;;;15.80;83.60;;;;;;5027057;28;20030;-69
2023/08/10 07:31:44;;;;;;;9.82;1.60;;;15.70;83.20;;;;;;5027167;28;20021;-67
2023/08/10 07:34:10;;;;;;;7.80;1.55;;;15.70;82.30;;;;;;5020324;28;20518;-67
2023/08/10 07:36:36;;;;;;;6.35;1.33;;;15.80;82.20;;;;;;5027206;28;20038;-67
2023/08/10 07:39:01;;;;;;;7.05;1.50;;;16.00;82.20;;;;;;5020392;28;20037;-67
2023/08/10 07:41:27;;;;;;;4.88;1.15;;;15.80;81.30;;;;;;5021605;28;20985;-67
2023/08/10 07:43:52;;;;;;;4.80;1.27;;;16.20;80.70;;;;;;5022580;28;20025;-67
2023/08/10 07:46:18;;;;;;;11.85;1.42;;;16.20;79.40;;;;;;5017195;28;20473;-69
2023/08/10 07:48:45;;;;;;;9.00;1.30;;;16.60;77.80;;;;;;5024072;28;20030;-70
2023/08/10 07:51:11;;;;;;;4.72;0.98;;;16.70;76.50;;;;;;5018700;28;20420;-69
2023/08/10 07:53:36;;;;;;;6.28;1.10;;;16.60;76.80;;;;;;5019086;28;20083;-69
2023/08/10 07:56:02;;;;;;;4.57;1.15;;;16.30;76.00;;;;;;5027727;28;20469;-69
2023/08/10 07:58:27;;;;;;;3.78;1.00;;;16.30;76.60;;;;;;5028285;28;20037;-68
2023/08/10 08:00:53;;;;;;;3.70;1.00;;;16.30;77.10;;;;;;5033312;28;20033;-69
2023/08/10 08:03:20;;;;;;;8.77;1.33;;;16.30;77.50;;;;;;5033807;28;20109;-69
2023/08/10 08:05:46;;;;;;;7.20;1.13;;;16.40;77.50;;;;;;5032586;28;20473;-68
2023/08/10 08:08:11;;;;;;;4.95;1.25;;;16.40;76.20;;;;;;5035678;28;20028;-69
2023/08/10 08:10:37;;;;;;;6.68;1.08;;;16.50;76.30;;;;;;5024987;28;20036;-69
2023/08/10 08:13:03;;;;;;;6.60;1.20;;;16.60;77.00;;;;;;5024608;28;20037;-68
2023/08/10 08:15:29;;;;;;;6.65;1.08;;;16.70;75.60;;;;;;5016027;28;20120;-68
2023/08/10 08:18:32;;;;;;;7.78;1.33;;;16.80;75.40;;;;;;5020312;28;20021;-68
2023/08/10 08:20:58;;;;;;;10.77;1.40;;;17.20;74.50;;;;;;5023157;28;20037;-68
2023/08/10 08:23:23;;;;;;;4.63;1.08;;;17.00;72.20;;;;;;5014746;28;20080;-67
2023/08/10 08:25:49;;;;;;;2.67;0.90;;;16.50;72.20;;;;;;5027981;28;20057;-70
2023/08/10 08:28:15;;;;;;;8.80;1.38;;;16.20;73.90;;;;;;5026385;28;20108;-68
2023/08/10 08:30:40;;;;;;;7.20;1.48;;;16.00;74.90;;;;;;5019156;28;20045;-70
2023/08/10 08:33:05;;;;;;;7.32;1.13;;;15.80;75.40;;;;;;5026042;28;20523;-69
2023/08/10 08:35:31;;;;;;;5.72;0.80;;;16.30;75.40;;;;;;5035644;28;20064;-68
2023/08/10 08:37:56;;;;;;;9.48;1.30;;;16.60;73.40;;;;;;5033015;28;20034;-69
2023/08/10 08:40:22;;;;;;;6.53;1.17;;;16.90;70.60;;;;;;5022969;28;20442;-69
2023/08/10 08:42:49;;;;;;;9.85;1.10;;;17.40;70.50;;;;;;5024768;28;20045;-69
2023/08/10 08:45:15;;;;;;;4.40;1.00;;;17.60;68.90;;;;;;5025942;28;20042;-70
2023/08/10 08:47:43;;;;;;;4.85;1.02;;;17.70;67.40;;;;;;5019757;28;20045;-68
2023/08/10 08:50:11;;;;;;;6.03;1.35;;;17.80;67.30;;;;;;5032451;28;20465;-71
2023/08/10 08:52:39;;;;;;;4.25;0.95;;;17.90;68.50;;;;;;5017406;28;20033;-69
2023/08/10 08:55:07;;;;;;;8.05;1.33;;;18.20;67.70;;;;;;5022726;28;20088;-69
2023/08/10 08:57:32;;;;;;;7.03;1.10;;;18.50;65.90;;;;;;5022337;28;20037;-68
2023/08/10 08:59:59;;;;;;;5.65;1.17;;;18.80;63.80;;;;;;5019978;28;20037;-68
2023/08/10 09:02:25;;;;;;;9.70;1.48;;;19.10;64.30;;;;;;5019519;28;20037;-69
2023/08/10 09:04:51;;;;;;;6.88;1.20;;;18.70;64.10;;;;;;5024625;28;20384;-69
2023/08/10 09:07:17;;;;;;;5.10;0.90;;;18.10;62.60;;;;;;5015690;28;20025;-69
2023/08/10 09:09:43;;;;;;;5.78;1.20;;;18.00;64.10;;;;;;5033356;28;20491;-69
2023/08/10 09:12:28;;;;;;;7.45;1.15;;;17.90;61.20;;;;;;5019639;28;20077;-69
2023/08/10 09:15:13;;;;;;;6.20;1.40;;;18.00;64.30;;;;;;5021480;28;20038;-69
2023/08/10 09:17:48;;;;;;;7.13;1.13;;;18.00;62.60;;;;;;5022962;28;20021;-68
2023/08/10 09:20:19;;;;;;;5.88;1.20;;;18.30;62.50;;;;;;5021972;28;20038;-69
2023/08/10 09:22:46;;;;;;;6.97;1.30;;;18.60;63.30;;;;;;5019371;28;20032;-70
2023/08/10 09:25:12;;;;;;;8.00;1.35;;;18.80;62.30;;;;;;5018155;28;20084;-68
2023/08/10 09:27:37;;;;;;;10.05;1.60;;;18.70;63.30;;;;;;5026879;28;20053;-68
2023/08/10 09:30:05;;;;;;;5.25;1.30;;;19.10;61.50;;;;;;5022597;28;20475;-66
2023/08/10 09:32:31;;;;;;;9.65;1.35;;;19.20;61.30;;;;;;5028414;28;20124;-67
2023/08/10 09:34:57;;;;;;;6.72;1.40;;;19.90;63.40;;;;;;5028452;28;20034;-66
2023/08/10 09:37:24;;;;;;;3.95;0.95;;;20.00;61.00;;;;;;5022496;28;20041;-66
2023/08/10 09:40:00;;;;;;;9.35;1.50;;;19.50;60.40;;;;;;5021625;28;20029;-65
2023/08/10 09:42:30;;;;;;;6.05;0.88;;;18.80;61.20;;;;;;5024702;28;20529;-66
2023/08/10 09:44:57;;;;;;;5.30;1.10;;;19.00;62.90;;;;;;5017970;28;20034;-66
2023/08/10 09:47:23;;;;;;;7.40;1.23;;;19.30;59.40;;;;;;5017652;28;20040;-66
2023/08/10 09:50:03;;;;;;;5.97;1.27;;;19.60;61.10;;;;;;5022740;28;20041;-66
2023/08/10 09:52:28;;;;;;;6.33;1.47;;;19.50;60.90;;;;;;5023638;28;20029;-69
2023/08/10 09:54:55;;;;;;;10.88;1.55;;;18.90;62.40;;;;;;5022750;28;20798;-69
2023/08/10 09:57:22;;;;;;;4.35;1.15;;;18.40;64.60;;;;;;5024245;28;20021;-69
2023/08/10 09:59:48;;;;;;;6.45;1.40;;;17.80;66.80;;;;;;5021669;28;20052;-69
2023/08/10 10:02:15;;;;;;;7.60;1.25;;;18.10;67.50;;;;;;5033970;28;20033;-67
2023/08/10 10:04:42;;;;;;;6.90;1.35;;;18.70;64.00;;;;;;5029900;28;20026;-66
2023/08/10 10:07:08;;;;;;;7.35;1.33;;;19.20;64.40;;;;;;5031881;28;20040;-68
2023/08/10 10:09:38;;;;;;;9.07;1.15;;;19.10;64.40;;;;;;5025610;28;20033;-67
2023/08/10 10:12:10;;;;;;;4.47;1.30;;;19.00;61.40;;;;;;5031653;28;20034;-67
2023/08/10 10:14:39;;;;;;;8.45;1.10;;;19.30;60.60;;;;;;5031121;28;20029;-68
2023/08/10 10:17:05;;;;;;;7.28;1.05;;;19.90;59.50;;;;;;5032232;28;20523;-67
2023/08/10 10:19:33;;;;;;;7.93;1.38;;;20.30;57.20;;;;;;5014314;28;20391;-67
2023/08/10 10:22:00;;;;;;;4.35;0.90;;;20.70;56.60;;;;;;5024355;28;20072;-67
2023/08/10 10:24:31;;;;;;;7.47;1.35;;;20.70;54.30;;;;;;5025261;28;20077;-67
2023/08/10 10:27:08;;;;;;;6.53;1.20;;;20.10;56.20;;;;;;5027383;28;20045;-68
2023/08/10 10:29:41;;;;;;;7.70;0.98;;;19.80;59.00;;;;;;5018181;28;20538;-68
2023/08/10 10:32:10;;;;;;;6.97;1.48;;;19.70;60.00;;;;;;5022893;28;20037;-67
2023/08/10 10:34:37;;;;;;;5.70;1.35;;;20.00;58.30;;;;;;5024729;28;20152;-69
2023/08/10 10:37:34;;;;;;;7.57;1.50;;;19.70;56.60;;;;;;5023769;28;20105;-68
2023/08/10 10:40:21;;;;;;;5.18;1.40;;;20.30;54.70;;;;;;5019897;28;20022;-68
2023/08/10 10:43:09;;;;;;;6.80;1.40;;;19.90;56.40;;;;;;5020417;28;20377;-68
2023/08/10 10:45:35;;;;;;;6.20;1.10;;;19.70;58.90;;;;;;5022709;28;20288;-68
2023/08/10 10:48:01;;;;;;;4.43;1.00;;;19.60;59.30;;;;;;5021978;28;20040;-67
2023/08/10 10:50:29;;;;;;;7.25;1.20;;;19.50;59.40;;;;;;5024098;28;20401;-68
2023/08/10 10:53:06;;;;;;;5.00;1.10;;;20.10;58.30;;;;;;5024790;28;20461;-68
2023/08/10 10:55:34;;;;;;;8.52;1.20;;;20.50;57.80;;;;;;5025811;28;20053;-67
2023/08/10 10:58:02;;;;;;;7.68;1.35;;;20.70;53.60;;;;;;5019280;28;20026;-67
2023/08/10 11:00:28;;;;;;;6.40;1.38;;;21.00;53.30;;;;;;5028943;28;20067;-67
2023/08/10 11:02:54;;;;;;;7.05;1.17;;;21.10;51.00;;;;;;5026939;28;20096;-67
2023/08/10 11:05:20;;;;;;;7.85;1.33;;;21.40;51.20;;;;;;5032539;28;20470;-68
2023/08/10 11:07:52;;;;;;;4.28;1.05;;;21.70;50.90;;;;;;5037646;28;20474;-68
2023/08/10 11:10:21;;;;;;;4.72;1.20;;;21.50;51.20;;;;;;5033689;28;20044;-68
2023/08/10 11:12:48;;;;;;;5.35;0.90;;;21.80;49.90;;;;;;5026996;28;20034;-68
2023/08/10 11:15:15;;;;;;;6.80;1.38;;;22.10;50.20;;;;;;5031016;28;20037;-68
2023/08/10 11:17:42;;;;;;;5.45;1.25;;;22.00;51.80;;;;;;5038655;28;20033;-68
2023/08/10 11:20:11;;;;;;;9.48;1.30;;;22.20;51.60;;;;;;5038044;28;20025;-68
2023/08/10 11:22:38;;;;;;;6.10;1.42;;;22.20;52.30;;;;;;5029019;28;20022;-68
2023/08/10 11:25:18;;;;;;;7.68;1.23;;;22.00;50.40;;;;;;5035818;28;20044;-68
2023/08/10 11:27:49;;;;;;;6.40;1.08;;;22.20;50.70;;;;;;5026923;28;20374;-67
2023/08/10 11:30:15;;;;;;;;;;;22.30;47.50;;;;;;5023838;28;20367;-67
2023/08/10 11:32:41;;;;;;;5.80;0.85;;;21.70;50.00;;;;;;5032237;28;20022;-68
2023/08/10 11:35:09;;;;;;;6.22;1.02;;;21.50;51.40;;;;;;5038037;28;21647;-68
2023/08/10 11:37:38;;;;;;;7.53;1.27;;;21.20;51.20;;;;;;5034589;28;20450;-68
2023/08/10 11:40:11;;;;;;;8.20;1.40;;;20.90;53.30;;;;;;5023105;28;20492;-67
2023/08/10 11:42:42;;;;;;;6.38;0.90;;;20.80;55.20;;;;;;5029277;28;20036;-67
2023/08/10 11:45:09;;;;;;;3.67;1.20;;;21.30;53.10;;;;;;5028477;28;20029;-68
2023/08/10 11:47:42;;;;;;;2.85;0.80;;;21.80;49.90;;;;;;5033566;28;20037;-68
2023/08/10 11:50:12;;;;;;;4.20;1.30;;;22.20;50.10;;;;;;5028672;28;20128;-68
2023/08/10 11:52:40;;;;;;;6.70;0.90;;;22.20;49.90;;;;;;5028615;28;20382;-68
2023/08/10 11:55:12;;;;;;;4.85;1.02;;;22.50;48.00;;;;;;5034553;28;20364;-67
2023/08/10 11:57:39;;;;;;;4.90;0.98;;;22.60;47.60;;;;;;5021132;28;20029;-68
2023/08/10 12:00:23;;;;;;;3.38;0.98;;;23.00;48.20;;;;;;5022080;28;20049;-67
2023/08/10 12:03:02;;;;;;;6.15;1.23;;;22.90;47.00;;;;;;5030647;28;20053;-68
2023/08/10 12:05:51;;;;;;;5.85;1.20;;;23.00;47.20;;;;;;5020594;28;20355;-68
2023/08/10 12:08:18;;;;;;;3.78;0.98;;;23.40;46.00;;;;;;5027541;28;20030;-69
2023/08/10 12:10:50;;;;;;;6.00;1.08;;;23.00;47.90;;;;;;5033762;28;20405;-69
2023/08/10 12:13:18;;;;;;;3.97;0.80;;;23.30;48.20;;;;;;5029719;28;20064;-67
2023/08/10 12:15:48;;;;;;;4.10;0.88;;;22.20;50.90;;;;;;5016075;28;20045;-67
2023/08/10 12:18:15;;;;;;;5.03;1.20;;;22.00;51.20;;;;;;5015453;28;20030;-68
2023/08/10 12:20:42;;;;;;;7.20;1.33;;;22.50;50.00;;;;;;5028688;28;20033;-67
2023/08/10 12:23:09;;;;;;;4.82;1.13;;;22.20;50.50;;;;;;5018219;28;20026;-68
2023/08/10 12:25:34;;;;;;;5.63;1.10;;;21.90;51.90;;;;;;5024216;28;20379;-67
2023/08/10 12:28:00;;;;;;;5.38;1.20;;;21.50;52.70;;;;;;5021969;28;20044;-68
2023/08/10 12:30:26;;;;;;;3.97;1.05;;;22.00;52.10;;;;;;5020497;28;20037;-67
2023/08/10 12:32:51;;;;;;;5.13;0.95;;;22.50;48.10;;;;;;5035200;28;20024;-68
2023/08/10 12:35:17;;;;;;;4.97;0.95;;;23.00;46.90;;;;;;5029852;28;20482;-69
2023/08/10 12:37:44;;;;;;;4.88;0.98;;;23.70;46.90;;;;;;5029591;28;20033;-67
2023/08/10 12:40:10;;;;;;;6.20;1.15;;;24.00;45.40;;;;;;5038274;28;20034;-68
2023/08/10 12:42:36;;;;;;;4.97;1.20;;;24.00;44.50;;;;;;5027152;28;20029;-68
2023/08/10 12:45:02;;;;;;;3.75;0.85;;;23.90;45.20;;;;;;5033728;28;20371;-68